sensor_id;sensor_type;location;lat;lon;timestamp;temperature;humidity
7384;DHT22;3733;47.994;8.820;2023-07-28T00:00:56;14.20;99.90
7384;DHT22;3733;47.994;8.820;2023-07-28T00:03:22;14.20;99.90
7384;DHT22;3733;47.994;8.820;2023-07-28T00:05:49;14.20;99.90
7384;DHT22;3733;47.994;8.820;2023-07-28T00:08:14;14.10;99.90
7384;DHT22;3733;47.994;8.820;2023-07-28T00:10:43;14.10;99.90
7384;DHT22;3733;47.994;8.820;2023-07-28T00:13:09;14.00;99.90
7384;DHT22;3733;47.994;8.820;2023-07-28T00:15:35;14.00;99.90
7384;DHT22;3733;47.994;8.820;2023-07-28T00:18:00;14.00;99.90
7384;DHT22;3733;47.994;8.820;2023-07-28T00:20:27;13.90;99.90
7384;DHT22;3733;47.994;8.820;2023-07-28T00:22:53;14.00;99.90
7384;DHT22;3733;47.994;8.820;2023-07-28T00:25:18;14.00;99.90
7384;DHT22;3733;47.994;8.820;2023-07-28T00:27:44;14.00;99.90
7384;DHT22;3733;47.994;8.820;2023-07-28T00:30:10;13.90;99.90
7384;DHT22;3733;47.994;8.820;2023-07-28T00:32:36;13.90;99.90
7384;DHT22;3733;47.994;8.820;2023-07-28T00:35:02;13.80;99.90
7384;DHT22;3733;47.994;8.820;2023-07-28T00:37:28;13.90;99.90
7384;DHT22;3733;47.994;8.820;2023-07-28T00:39:54;13.80;99.90
7384;DHT22;3733;47.994;8.820;2023-07-28T00:42:19;13.80;99.90
7384;DHT22;3733;47.994;8.820;2023-07-28T00:44:45;13.80;99.90
7384;DHT22;3733;47.994;8.820;2023-07-28T00:47:11;13.80;99.90
7384;DHT22;3733;47.994;8.820;2023-07-28T00:49:38;13.80;99.90
7384;DHT22;3733;47.994;8.820;2023-07-28T00:52:09;13.70;99.90
7384;DHT22;3733;47.994;8.820;2023-07-28T00:54:35;13.70;99.90
7384;DHT22;3733;47.994;8.820;2023-07-28T00:57:03;13.70;99.90
7384;DHT22;3733;47.994;8.820;2023-07-28T00:59:30;13.70;99.90
7384;DHT22;3733;47.994;8.820;2023-07-28T01:01:56;13.70;99.90
7384;DHT22;3733;47.994;8.820;2023-07-28T01:04:22;13.60;99.90
7384;DHT22;3733;47.994;8.820;2023-07-28T01:07:04;13.60;99.90
7384;DHT22;3733;47.994;8.820;2023-07-28T01:09:46;13.60;99.90
7384;DHT22;3733;47.994;8.820;2023-07-28T01:12:12;13.60;99.90
7384;DHT22;3733;47.994;8.820;2023-07-28T01:14:38;13.50;99.90
7384;DHT22;3733;47.994;8.820;2023-07-28T01:17:03;13.50;99.90
7384;DHT22;3733;47.994;8.820;2023-07-28T01:19:29;13.50;99.90
7384;DHT22;3733;47.994;8.820;2023-07-28T01:24:39;13.50;99.90
7384;DHT22;3733;47.994;8.820;2023-07-28T01:27:08;13.50;99.90
7384;DHT22;3733;47.994;8.820;2023-07-28T01:29:34;13.50;99.90
7384;DHT22;3733;47.994;8.820;2023-07-28T01:32:00;13.50;99.90
7384;DHT22;3733;47.994;8.820;2023-07-28T01:34:26;13.40;99.90
7384;DHT22;3733;47.994;8.820;2023-07-28T01:36:52;13.50;99.90
7384;DHT22;3733;47.994;8.820;2023-07-28T01:39:17;13.40;99.90
7384;DHT22;3733;47.994;8.820;2023-07-28T01:41:43;13.40;99.90
7384;DHT22;3733;47.994;8.820;2023-07-28T01:44:10;13.40;99.90
7384;DHT22;3733;47.994;8.820;2023-07-28T01:46:36;13.40;99.90
7384;DHT22;3733;47.994;8.820;2023-07-28T01:49:01;13.40;99.90
7384;DHT22;3733;47.994;8.820;2023-07-28T01:51:27;13.40;99.90
7384;DHT22;3733;47.994;8.820;2023-07-28T01:53:52;13.50;99.90
7384;DHT22;3733;47.994;8.820;2023-07-28T01:56:18;13.50;99.90
7384;DHT22;3733;47.994;8.820;2023-07-28T01:58:44;13.50;99.90
7384;DHT22;3733;47.994;8.820;2023-07-28T02:01:12;13.50;99.90
7384;DHT22;3733;47.994;8.820;2023-07-28T02:03:37;13.50;99.90
7384;DHT22;3733;47.994;8.820;2023-07-28T02:06:03;13.50;99.90
7384;DHT22;3733;47.994;8.820;2023-07-28T02:08:28;13.50;99.90
7384;DHT22;3733;47.994;8.820;2023-07-28T02:10:54;13.40;99.90
7384;DHT22;3733;47.994;8.820;2023-07-28T02:13:20;13.40;99.90
7384;DHT22;3733;47.994;8.820;2023-07-28T02:15:45;13.40;99.90
7384;DHT22;3733;47.994;8.820;2023-07-28T02:18:11;13.40;99.90
7384;DHT22;3733;47.994;8.820;2023-07-28T02:20:36;13.30;99.90
7384;DHT22;3733;47.994;8.820;2023-07-28T02:23:04;13.30;99.90
7384;DHT22;3733;47.994;8.820;2023-07-28T02:25:30;13.30;99.90
7384;DHT22;3733;47.994;8.820;2023-07-28T02:27:55;13.30;99.90
7384;DHT22;3733;47.994;8.820;2023-07-28T02:30:21;13.30;99.90
7384;DHT22;3733;47.994;8.820;2023-07-28T02:32:46;13.20;99.90
7384;DHT22;3733;47.994;8.820;2023-07-28T02:35:12;13.30;99.90
7384;DHT22;3733;47.994;8.820;2023-07-28T02:37:38;13.30;99.90
7384;DHT22;3733;47.994;8.820;2023-07-28T02:40:04;13.20;99.90
7384;DHT22;3733;47.994;8.820;2023-07-28T02:42:29;13.20;99.90
7384;DHT22;3733;47.994;8.820;2023-07-28T02:44:56;13.20;99.90
7384;DHT22;3733;47.994;8.820;2023-07-28T02:47:21;13.20;99.90
7384;DHT22;3733;47.994;8.820;2023-07-28T02:49:47;13.20;99.90
7384;DHT22;3733;47.994;8.820;2023-07-28T02:52:12;13.20;99.90
7384;DHT22;3733;47.994;8.820;2023-07-28T02:54:38;13.20;99.90
7384;DHT22;3733;47.994;8.820;2023-07-28T02:57:04;13.20;99.90
7384;DHT22;3733;47.994;8.820;2023-07-28T02:59:30;13.20;99.90
7384;DHT22;3733;47.994;8.820;2023-07-28T03:01:55;13.20;99.90
7384;DHT22;3733;47.994;8.820;2023-07-28T03:04:22;13.20;99.90
7384;DHT22;3733;47.994;8.820;2023-07-28T03:06:48;13.20;99.90
7384;DHT22;3733;47.994;8.820;2023-07-28T03:09:14;13.20;99.90
7384;DHT22;3733;47.994;8.820;2023-07-28T03:11:42;13.20;99.90
7384;DHT22;3733;47.994;8.820;2023-07-28T03:14:07;13.20;99.90
7384;DHT22;3733;47.994;8.820;2023-07-28T03:16:33;13.30;99.90
7384;DHT22;3733;47.994;8.820;2023-07-28T03:18:59;13.20;99.90
7384;DHT22;3733;47.994;8.820;2023-07-28T03:21:24;13.30;99.90
7384;DHT22;3733;47.994;8.820;2023-07-28T03:23:50;13.20;99.90
7384;DHT22;3733;47.994;8.820;2023-07-28T03:26:15;13.20;99.90
7384;DHT22;3733;47.994;8.820;2023-07-28T03:28:41;13.10;99.90
7384;DHT22;3733;47.994;8.820;2023-07-28T03:31:06;13.00;99.90
7384;DHT22;3733;47.994;8.820;2023-07-28T03:33:32;12.90;99.90
7384;DHT22;3733;47.994;8.820;2023-07-28T03:35:58;12.90;99.90
7384;DHT22;3733;47.994;8.820;2023-07-28T03:38:23;12.80;99.90
7384;DHT22;3733;47.994;8.820;2023-07-28T03:40:49;12.80;99.90
7384;DHT22;3733;47.994;8.820;2023-07-28T03:43:15;12.80;99.90
7384;DHT22;3733;47.994;8.820;2023-07-28T03:45:41;12.70;99.90
7384;DHT22;3733;47.994;8.820;2023-07-28T03:48:07;12.70;99.90
7384;DHT22;3733;47.994;8.820;2023-07-28T03:50:32;12.70;99.90
7384;DHT22;3733;47.994;8.820;2023-07-28T03:52:58;12.70;99.90
7384;DHT22;3733;47.994;8.820;2023-07-28T03:55:23;12.70;99.90
7384;DHT22;3733;47.994;8.820;2023-07-28T03:57:49;12.70;99.90
7384;DHT22;3733;47.994;8.820;2023-07-28T04:00:15;12.70;99.90
7384;DHT22;3733;47.994;8.820;2023-07-28T04:02:40;12.70;99.90
7384;DHT22;3733;47.994;8.820;2023-07-28T04:05:06;12.70;99.90
7384;DHT22;3733;47.994;8.820;2023-07-28T04:07:32;12.70;99.90
7384;DHT22;3733;47.994;8.820;2023-07-28T04:09:57;12.70;99.90
7384;DHT22;3733;47.994;8.820;2023-07-28T04:12:23;12.70;99.90
7384;DHT22;3733;47.994;8.820;2023-07-28T04:14:49;12.70;99.90
7384;DHT22;3733;47.994;8.820;2023-07-28T04:17:14;12.80;99.90
7384;DHT22;3733;47.994;8.820;2023-07-28T04:19:40;12.80;99.90
7384;DHT22;3733;47.994;8.820;2023-07-28T04:22:05;12.80;99.90
7384;DHT22;3733;47.994;8.820;2023-07-28T04:24:31;12.70;99.90
7384;DHT22;3733;47.994;8.820;2023-07-28T04:26:57;12.80;99.90
7384;DHT22;3733;47.994;8.820;2023-07-28T04:29:22;12.80;99.90
7384;DHT22;3733;47.994;8.820;2023-07-28T04:31:48;12.80;99.90
7384;DHT22;3733;47.994;8.820;2023-07-28T04:34:14;12.80;99.90
7384;DHT22;3733;47.994;8.820;2023-07-28T04:36:39;12.90;99.90
7384;DHT22;3733;47.994;8.820;2023-07-28T04:39:05;12.90;99.90
7384;DHT22;3733;47.994;8.820;2023-07-28T04:41:30;12.90;99.90
7384;DHT22;3733;47.994;8.820;2023-07-28T04:43:56;13.00;99.90
7384;DHT22;3733;47.994;8.820;2023-07-28T04:46:22;13.00;99.90
7384;DHT22;3733;47.994;8.820;2023-07-28T04:48:48;13.00;99.90
7384;DHT22;3733;47.994;8.820;2023-07-28T04:51:13;13.10;99.90
7384;DHT22;3733;47.994;8.820;2023-07-28T04:53:39;13.10;99.90
7384;DHT22;3733;47.994;8.820;2023-07-28T04:56:05;13.20;99.90
7384;DHT22;3733;47.994;8.820;2023-07-28T04:58:30;13.20;99.90
7384;DHT22;3733;47.994;8.820;2023-07-28T05:00:56;13.20;99.90
7384;DHT22;3733;47.994;8.820;2023-07-28T05:03:21;13.30;99.90
7384;DHT22;3733;47.994;8.820;2023-07-28T05:05:47;13.30;99.90
7384;DHT22;3733;47.994;8.820;2023-07-28T05:08:12;13.40;99.90
7384;DHT22;3733;47.994;8.820;2023-07-28T05:10:38;13.40;99.90
7384;DHT22;3733;47.994;8.820;2023-07-28T05:13:04;13.50;99.90
7384;DHT22;3733;47.994;8.820;2023-07-28T05:15:30;13.60;99.90
7384;DHT22;3733;47.994;8.820;2023-07-28T05:17:56;13.60;99.90
7384;DHT22;3733;47.994;8.820;2023-07-28T05:20:21;13.70;99.90
7384;DHT22;3733;47.994;8.820;2023-07-28T05:22:47;13.80;99.90
7384;DHT22;3733;47.994;8.820;2023-07-28T05:25:13;13.80;99.90
7384;DHT22;3733;47.994;8.820;2023-07-28T05:27:38;13.90;99.90
7384;DHT22;3733;47.994;8.820;2023-07-28T05:30:04;13.90;99.90
7384;DHT22;3733;47.994;8.820;2023-07-28T05:32:31;13.90;99.90
7384;DHT22;3733;47.994;8.820;2023-07-28T05:34:56;13.90;99.90
7384;DHT22;3733;47.994;8.820;2023-07-28T05:37:22;13.90;99.90
7384;DHT22;3733;47.994;8.820;2023-07-28T05:39:47;13.90;99.90
7384;DHT22;3733;47.994;8.820;2023-07-28T05:42:13;13.90;99.90
7384;DHT22;3733;47.994;8.820;2023-07-28T05:44:38;13.90;99.90
7384;DHT22;3733;47.994;8.820;2023-07-28T05:47:04;14.00;99.90
7384;DHT22;3733;47.994;8.820;2023-07-28T05:49:30;14.10;99.90
7384;DHT22;3733;47.994;8.820;2023-07-28T05:51:56;14.20;99.90
7384;DHT22;3733;47.994;8.820;2023-07-28T05:54:21;14.40;99.90
7384;DHT22;3733;47.994;8.820;2023-07-28T05:56:47;14.60;99.90
7384;DHT22;3733;47.994;8.820;2023-07-28T05:59:12;14.80;99.90
7384;DHT22;3733;47.994;8.820;2023-07-28T06:01:38;14.90;99.90
7384;DHT22;3733;47.994;8.820;2023-07-28T06:04:04;15.00;99.90
7384;DHT22;3733;47.994;8.820;2023-07-28T06:06:29;15.10;99.90
7384;DHT22;3733;47.994;8.820;2023-07-28T06:08:55;15.20;99.90
7384;DHT22;3733;47.994;8.820;2023-07-28T06:11:21;15.20;99.90
7384;DHT22;3733;47.994;8.820;2023-07-28T06:13:47;15.20;99.90
7384;DHT22;3733;47.994;8.820;2023-07-28T06:16:14;15.20;99.90
7384;DHT22;3733;47.994;8.820;2023-07-28T06:18:39;15.30;99.90
7384;DHT22;3733;47.994;8.820;2023-07-28T06:21:05;15.30;99.90
7384;DHT22;3733;47.994;8.820;2023-07-28T06:23:30;15.30;99.90
7384;DHT22;3733;47.994;8.820;2023-07-28T06:25:56;15.40;99.90
7384;DHT22;3733;47.994;8.820;2023-07-28T06:28:22;15.40;99.90
7384;DHT22;3733;47.994;8.820;2023-07-28T06:30:47;15.40;99.90
7384;DHT22;3733;47.994;8.820;2023-07-28T06:33:18;15.40;99.90
7384;DHT22;3733;47.994;8.820;2023-07-28T06:35:43;15.50;99.90
7384;DHT22;3733;47.994;8.820;2023-07-28T06:38:09;15.40;99.90
7384;DHT22;3733;47.994;8.820;2023-07-28T06:40:34;15.50;99.90
7384;DHT22;3733;47.994;8.820;2023-07-28T06:43:00;15.50;99.90
7384;DHT22;3733;47.994;8.820;2023-07-28T06:45:26;15.50;99.90
7384;DHT22;3733;47.994;8.820;2023-07-28T06:47:51;15.60;99.90
7384;DHT22;3733;47.994;8.820;2023-07-28T06:50:17;15.60;99.90
7384;DHT22;3733;47.994;8.820;2023-07-28T06:52:43;15.70;99.90
7384;DHT22;3733;47.994;8.820;2023-07-28T06:55:08;15.80;99.90
7384;DHT22;3733;47.994;8.820;2023-07-28T06:57:34;15.80;99.90
7384;DHT22;3733;47.994;8.820;2023-07-28T07:00:00;15.80;99.90
7384;DHT22;3733;47.994;8.820;2023-07-28T07:02:26;15.90;99.90
7384;DHT22;3733;47.994;8.820;2023-07-28T07:04:52;15.90;99.90
7384;DHT22;3733;47.994;8.820;2023-07-28T07:07:17;15.90;99.90
7384;DHT22;3733;47.994;8.820;2023-07-28T07:09:43;16.00;99.90
7384;DHT22;3733;47.994;8.820;2023-07-28T07:12:09;16.00;99.90
7384;DHT22;3733;47.994;8.820;2023-07-28T07:14:35;16.10;99.90
7384;DHT22;3733;47.994;8.820;2023-07-28T07:17:00;16.10;99.90
7384;DHT22;3733;47.994;8.820;2023-07-28T07:19:28;16.10;99.90
7384;DHT22;3733;47.994;8.820;2023-07-28T07:21:54;16.10;99.90
7384;DHT22;3733;47.994;8.820;2023-07-28T07:24:20;16.20;99.90
7384;DHT22;3733;47.994;8.820;2023-07-28T07:26:46;16.20;99.90
7384;DHT22;3733;47.994;8.820;2023-07-28T07:29:12;16.20;99.90
7384;DHT22;3733;47.994;8.820;2023-07-28T07:31:38;16.30;99.90
7384;DHT22;3733;47.994;8.820;2023-07-28T07:34:04;16.30;99.90
7384;DHT22;3733;47.994;8.820;2023-07-28T07:36:29;16.30;99.90
7384;DHT22;3733;47.994;8.820;2023-07-28T07:38:55;16.40;99.90
7384;DHT22;3733;47.994;8.820;2023-07-28T07:41:22;16.40;99.90
7384;DHT22;3733;47.994;8.820;2023-07-28T07:43:48;16.50;99.90
7384;DHT22;3733;47.994;8.820;2023-07-28T07:46:15;16.50;99.90
7384;DHT22;3733;47.994;8.820;2023-07-28T07:48:41;16.60;99.90
7384;DHT22;3733;47.994;8.820;2023-07-28T07:51:08;16.60;99.90
7384;DHT22;3733;47.994;8.820;2023-07-28T07:53:34;16.70;99.90
7384;DHT22;3733;47.994;8.820;2023-07-28T07:56:02;16.80;99.90
7384;DHT22;3733;47.994;8.820;2023-07-28T07:58:28;16.80;99.90
7384;DHT22;3733;47.994;8.820;2023-07-28T08:00:54;16.90;99.90
7384;DHT22;3733;47.994;8.820;2023-07-28T08:03:20;17.00;99.90
7384;DHT22;3733;47.994;8.820;2023-07-28T08:05:46;17.10;99.90
7384;DHT22;3733;47.994;8.820;2023-07-28T08:08:11;17.20;99.90
7384;DHT22;3733;47.994;8.820;2023-07-28T08:10:39;17.30;99.90
7384;DHT22;3733;47.994;8.820;2023-07-28T08:13:04;17.40;99.90
7384;DHT22;3733;47.994;8.820;2023-07-28T08:15:30;17.50;99.90
7384;DHT22;3733;47.994;8.820;2023-07-28T08:17:55;17.60;99.90
7384;DHT22;3733;47.994;8.820;2023-07-28T08:20:21;17.70;99.90
7384;DHT22;3733;47.994;8.820;2023-07-28T08:22:47;17.80;99.90
7384;DHT22;3733;47.994;8.820;2023-07-28T08:25:12;17.90;99.90
7384;DHT22;3733;47.994;8.820;2023-07-28T08:27:38;18.00;99.90
7384;DHT22;3733;47.994;8.820;2023-07-28T08:30:04;18.10;99.90
7384;DHT22;3733;47.994;8.820;2023-07-28T08:32:30;18.30;99.90
7384;DHT22;3733;47.994;8.820;2023-07-28T08:34:56;18.60;99.90
7384;DHT22;3733;47.994;8.820;2023-07-28T08:37:22;18.90;99.90
7384;DHT22;3733;47.994;8.820;2023-07-28T08:39:48;19.10;99.90
7384;DHT22;3733;47.994;8.820;2023-07-28T08:42:13;19.30;99.90
7384;DHT22;3733;47.994;8.820;2023-07-28T08:44:39;19.50;99.90
7384;DHT22;3733;47.994;8.820;2023-07-28T08:47:05;19.70;99.90
7384;DHT22;3733;47.994;8.820;2023-07-28T08:49:31;19.80;99.90
7384;DHT22;3733;47.994;8.820;2023-07-28T08:51:59;19.80;99.90
7384;DHT22;3733;47.994;8.820;2023-07-28T08:54:25;19.90;99.90
7384;DHT22;3733;47.994;8.820;2023-07-28T08:56:51;19.90;99.90
7384;DHT22;3733;47.994;8.820;2023-07-28T08:59:24;19.90;99.90
7384;DHT22;3733;47.994;8.820;2023-07-28T09:01:55;20.00;99.90
7384;DHT22;3733;47.994;8.820;2023-07-28T09:04:22;20.10;99.90
7384;DHT22;3733;47.994;8.820;2023-07-28T09:06:48;20.20;99.90
7384;DHT22;3733;47.994;8.820;2023-07-28T09:09:15;20.20;99.90
7384;DHT22;3733;47.994;8.820;2023-07-28T09:11:59;20.30;99.90
7384;DHT22;3733;47.994;8.820;2023-07-28T09:14:26;20.30;99.90
7384;DHT22;3733;47.994;8.820;2023-07-28T09:16:52;20.40;99.90
7384;DHT22;3733;47.994;8.820;2023-07-28T09:19:20;20.50;99.90
7384;DHT22;3733;47.994;8.820;2023-07-28T09:21:57;20.50;99.90
7384;DHT22;3733;47.994;8.820;2023-07-28T09:24:30;20.50;99.90
7384;DHT22;3733;47.994;8.820;2023-07-28T09:26:58;20.60;99.90
7384;DHT22;3733;47.994;8.820;2023-07-28T09:29:24;20.60;99.90
7384;DHT22;3733;47.994;8.820;2023-07-28T09:31:52;20.60;99.90
7384;DHT22;3733;47.994;8.820;2023-07-28T09:34:26;20.70;99.90
7384;DHT22;3733;47.994;8.820;2023-07-28T09:36:56;20.70;99.90
7384;DHT22;3733;47.994;8.820;2023-07-28T09:39:22;20.70;99.90
7384;DHT22;3733;47.994;8.820;2023-07-28T09:41:48;20.80;99.90
7384;DHT22;3733;47.994;8.820;2023-07-28T09:44:15;20.80;99.90
7384;DHT22;3733;47.994;8.820;2023-07-28T09:46:51;20.90;99.90
7384;DHT22;3733;47.994;8.820;2023-07-28T09:49:36;21.00;99.90
7384;DHT22;3733;47.994;8.820;2023-07-28T09:52:08;21.10;99.90
7384;DHT22;3733;47.994;8.820;2023-07-28T09:54:39;21.20;99.90
7384;DHT22;3733;47.994;8.820;2023-07-28T09:57:11;21.20;99.90
7384;DHT22;3733;47.994;8.820;2023-07-28T09:59:39;21.30;99.90
7384;DHT22;3733;47.994;8.820;2023-07-28T10:02:06;21.40;99.90
7384;DHT22;3733;47.994;8.820;2023-07-28T10:04:33;21.50;99.90
7384;DHT22;3733;47.994;8.820;2023-07-28T10:07:00;21.50;99.90
7384;DHT22;3733;47.994;8.820;2023-07-28T10:09:28;21.50;99.90
7384;DHT22;3733;47.994;8.820;2023-07-28T10:11:56;21.60;99.90
7384;DHT22;3733;47.994;8.820;2023-07-28T10:14:32;21.60;98.80
7384;DHT22;3733;47.994;8.820;2023-07-28T10:17:00;21.80;99.40
7384;DHT22;3733;47.994;8.820;2023-07-28T10:19:34;22.00;96.40
7384;DHT22;3733;47.994;8.820;2023-07-28T10:22:01;22.30;85.80
7384;DHT22;3733;47.994;8.820;2023-07-28T10:27:32;22.50;89.30
7384;DHT22;3733;47.994;8.820;2023-07-28T10:30:01;22.50;82.70
7384;DHT22;3733;47.994;8.820;2023-07-28T10:32:48;22.60;72.30
7384;DHT22;3733;47.994;8.820;2023-07-28T10:37:47;22.90;71.50
7384;DHT22;3733;47.994;8.820;2023-07-28T10:40:34;23.20;70.80
7384;DHT22;3733;47.994;8.820;2023-07-28T10:43:04;23.50;66.80
7384;DHT22;3733;47.994;8.820;2023-07-28T10:45:31;23.60;65.10
7384;DHT22;3733;47.994;8.820;2023-07-28T10:47:58;23.60;63.80
7384;DHT22;3733;47.994;8.820;2023-07-28T10:50:29;23.60;61.90
7384;DHT22;3733;47.994;8.820;2023-07-28T10:52:56;23.50;61.30
7384;DHT22;3733;47.994;8.820;2023-07-28T10:55:26;23.50;61.10
7384;DHT22;3733;47.994;8.820;2023-07-28T10:57:53;23.30;61.90
7384;DHT22;3733;47.994;8.820;2023-07-28T11:00:20;23.30;61.90
7384;DHT22;3733;47.994;8.820;2023-07-28T11:05:18;23.30;60.90
7384;DHT22;3733;47.994;8.820;2023-07-28T11:07:44;23.30;60.00
7384;DHT22;3733;47.994;8.820;2023-07-28T11:10:10;23.20;59.50
7384;DHT22;3733;47.994;8.820;2023-07-28T11:12:44;23.20;58.50
7384;DHT22;3733;47.994;8.820;2023-07-28T11:15:11;23.30;58.90
7384;DHT22;3733;47.994;8.820;2023-07-28T11:17:39;23.40;58.70
7384;DHT22;3733;47.994;8.820;2023-07-28T11:20:26;23.40;57.20
7384;DHT22;3733;47.994;8.820;2023-07-28T11:25:19;23.50;57.40
7384;DHT22;3733;47.994;8.820;2023-07-28T11:27:47;23.40;57.20
7384;DHT22;3733;47.994;8.820;2023-07-28T11:30:14;23.40;57.30
7384;DHT22;3733;47.994;8.820;2023-07-28T11:32:43;23.20;56.90
7384;DHT22;3733;47.994;8.820;2023-07-28T11:35:11;23.20;58.00
7384;DHT22;3733;47.994;8.820;2023-07-28T11:37:38;23.20;58.50
7384;DHT22;3733;47.994;8.820;2023-07-28T11:40:06;23.20;59.70
7384;DHT22;3733;47.994;8.820;2023-07-28T11:42:37;23.10;59.60
7384;DHT22;3733;47.994;8.820;2023-07-28T11:45:04;23.10;59.80
7384;DHT22;3733;47.994;8.820;2023-07-28T11:47:30;23.10;61.00
7384;DHT22;3733;47.994;8.820;2023-07-28T11:49:57;23.00;61.80
7384;DHT22;3733;47.994;8.820;2023-07-28T11:52:36;23.00;61.10
7384;DHT22;3733;47.994;8.820;2023-07-28T11:55:05;22.90;60.30
7384;DHT22;3733;47.994;8.820;2023-07-28T11:57:32;22.80;60.70
7384;DHT22;3733;47.994;8.820;2023-07-28T12:00:01;22.80;63.40
7384;DHT22;3733;47.994;8.820;2023-07-28T12:02:31;22.80;64.20
7384;DHT22;3733;47.994;8.820;2023-07-28T12:04:57;22.80;62.10
7384;DHT22;3733;47.994;8.820;2023-07-28T12:07:33;22.70;59.80
7384;DHT22;3733;47.994;8.820;2023-07-28T12:10:07;22.70;60.30
7384;DHT22;3733;47.994;8.820;2023-07-28T12:12:44;22.70;62.30
7384;DHT22;3733;47.994;8.820;2023-07-28T12:15:28;22.70;62.00
7384;DHT22;3733;47.994;8.820;2023-07-28T12:18:11;22.70;61.40
7384;DHT22;3733;47.994;8.820;2023-07-28T12:20:42;22.70;61.10
7384;DHT22;3733;47.994;8.820;2023-07-28T12:23:21;22.80;62.20
7384;DHT22;3733;47.994;8.820;2023-07-28T12:25:48;23.00;63.60
7384;DHT22;3733;47.994;8.820;2023-07-28T12:28:14;23.10;61.70
7384;DHT22;3733;47.994;8.820;2023-07-28T12:30:40;23.20;61.50
7384;DHT22;3733;47.994;8.820;2023-07-28T12:33:06;23.30;62.60
7384;DHT22;3733;47.994;8.820;2023-07-28T12:35:33;23.30;64.80
7384;DHT22;3733;47.994;8.820;2023-07-28T12:38:00;23.50;61.20
7384;DHT22;3733;47.994;8.820;2023-07-28T12:40:27;23.40;60.50
7384;DHT22;3733;47.994;8.820;2023-07-28T12:42:56;23.50;60.80
7384;DHT22;3733;47.994;8.820;2023-07-28T12:45:22;23.40;60.30
7384;DHT22;3733;47.994;8.820;2023-07-28T12:47:48;23.30;60.40
7384;DHT22;3733;47.994;8.820;2023-07-28T12:50:13;23.20;61.60
7384;DHT22;3733;47.994;8.820;2023-07-28T12:52:39;23.10;61.60
7384;DHT22;3733;47.994;8.820;2023-07-28T12:55:05;23.10;63.70
7384;DHT22;3733;47.994;8.820;2023-07-28T12:57:31;23.00;65.30
7384;DHT22;3733;47.994;8.820;2023-07-28T12:59:58;22.90;66.30
7384;DHT22;3733;47.994;8.820;2023-07-28T13:02:23;22.90;66.80
7384;DHT22;3733;47.994;8.820;2023-07-28T13:04:49;22.80;65.60
7384;DHT22;3733;47.994;8.820;2023-07-28T13:07:14;22.80;64.40
7384;DHT22;3733;47.994;8.820;2023-07-28T13:09:40;22.80;65.60
7384;DHT22;3733;47.994;8.820;2023-07-28T13:12:07;22.70;66.50
7384;DHT22;3733;47.994;8.820;2023-07-28T13:14:33;22.80;64.30
7384;DHT22;3733;47.994;8.820;2023-07-28T13:16:59;22.80;64.20
7384;DHT22;3733;47.994;8.820;2023-07-28T13:19:24;22.70;64.30
7384;DHT22;3733;47.994;8.820;2023-07-28T13:21:50;22.70;65.00
7384;DHT22;3733;47.994;8.820;2023-07-28T13:24:16;22.70;64.70
7384;DHT22;3733;47.994;8.820;2023-07-28T13:26:41;22.70;65.60
7384;DHT22;3733;47.994;8.820;2023-07-28T13:29:07;22.60;66.40
7384;DHT22;3733;47.994;8.820;2023-07-28T13:31:33;22.60;69.20
7384;DHT22;3733;47.994;8.820;2023-07-28T13:33:59;22.60;68.80
7384;DHT22;3733;47.994;8.820;2023-07-28T13:36:24;22.70;70.90
7384;DHT22;3733;47.994;8.820;2023-07-28T13:38:50;22.70;71.90
7384;DHT22;3733;47.994;8.820;2023-07-28T13:41:16;22.70;71.30
7384;DHT22;3733;47.994;8.820;2023-07-28T13:43:41;22.90;71.80
7384;DHT22;3733;47.994;8.820;2023-07-28T13:46:07;23.20;66.90
7384;DHT22;3733;47.994;8.820;2023-07-28T13:48:34;23.40;65.00
7384;DHT22;3733;47.994;8.820;2023-07-28T13:51:01;23.50;63.70
7384;DHT22;3733;47.994;8.820;2023-07-28T13:53:27;23.70;63.30
7384;DHT22;3733;47.994;8.820;2023-07-28T13:55:54;23.80;60.40
7384;DHT22;3733;47.994;8.820;2023-07-28T13:58:19;23.80;60.40
7384;DHT22;3733;47.994;8.820;2023-07-28T14:00:45;23.70;60.80
7384;DHT22;3733;47.994;8.820;2023-07-28T14:03:11;23.60;61.10
7384;DHT22;3733;47.994;8.820;2023-07-28T14:05:36;23.50;62.20
7384;DHT22;3733;47.994;8.820;2023-07-28T14:08:02;23.30;63.10
7384;DHT22;3733;47.994;8.820;2023-07-28T14:10:27;23.20;64.60
7384;DHT22;3733;47.994;8.820;2023-07-28T14:12:53;23.00;65.70
7384;DHT22;3733;47.994;8.820;2023-07-28T14:15:19;22.90;67.10
7384;DHT22;3733;47.994;8.820;2023-07-28T14:17:44;22.70;69.40
7384;DHT22;3733;47.994;8.820;2023-07-28T14:20:10;22.60;73.10
7384;DHT22;3733;47.994;8.820;2023-07-28T14:22:36;22.60;73.20
7384;DHT22;3733;47.994;8.820;2023-07-28T14:25:02;22.60;74.30
7384;DHT22;3733;47.994;8.820;2023-07-28T14:27:28;22.80;71.20
7384;DHT22;3733;47.994;8.820;2023-07-28T14:29:54;22.90;64.60
7384;DHT22;3733;47.994;8.820;2023-07-28T14:32:19;23.00;62.90
7384;DHT22;3733;47.994;8.820;2023-07-28T14:34:45;22.90;61.50
7384;DHT22;3733;47.994;8.820;2023-07-28T14:37:10;22.90;61.70
7384;DHT22;3733;47.994;8.820;2023-07-28T14:39:36;22.90;63.20
7384;DHT22;3733;47.994;8.820;2023-07-28T14:42:03;23.00;63.00
7384;DHT22;3733;47.994;8.820;2023-07-28T14:44:29;23.30;65.10
7384;DHT22;3733;47.994;8.820;2023-07-28T14:46:55;23.50;61.40
7384;DHT22;3733;47.994;8.820;2023-07-28T14:49:20;23.50;60.20
7384;DHT22;3733;47.994;8.820;2023-07-28T14:51:46;23.30;60.20
7384;DHT22;3733;47.994;8.820;2023-07-28T14:54:12;23.10;60.30
7384;DHT22;3733;47.994;8.820;2023-07-28T14:56:37;22.90;60.60
7384;DHT22;3733;47.994;8.820;2023-07-28T14:59:03;22.80;61.10
7384;DHT22;3733;47.994;8.820;2023-07-28T15:01:30;22.60;61.60
7384;DHT22;3733;47.994;8.820;2023-07-28T15:03:55;22.50;63.10
7384;DHT22;3733;47.994;8.820;2023-07-28T15:06:21;22.40;64.40
7384;DHT22;3733;47.994;8.820;2023-07-28T15:08:47;22.30;64.90
7384;DHT22;3733;47.994;8.820;2023-07-28T15:11:13;22.20;66.90
7384;DHT22;3733;47.994;8.820;2023-07-28T15:13:39;22.10;67.60
7384;DHT22;3733;47.994;8.820;2023-07-28T15:16:05;22.10;69.50
7384;DHT22;3733;47.994;8.820;2023-07-28T15:18:31;22.00;71.90
7384;DHT22;3733;47.994;8.820;2023-07-28T15:20:56;21.90;74.90
7384;DHT22;3733;47.994;8.820;2023-07-28T15:23:25;21.90;74.60
7384;DHT22;3733;47.994;8.820;2023-07-28T15:25:51;21.80;76.80
7384;DHT22;3733;47.994;8.820;2023-07-28T15:28:18;21.80;78.20
7384;DHT22;3733;47.994;8.820;2023-07-28T15:30:44;21.80;80.30
7384;DHT22;3733;47.994;8.820;2023-07-28T15:33:13;21.80;83.20
7384;DHT22;3733;47.994;8.820;2023-07-28T15:35:40;21.80;87.70
7384;DHT22;3733;47.994;8.820;2023-07-28T15:38:06;21.80;90.60
7384;DHT22;3733;47.994;8.820;2023-07-28T15:40:32;21.70;92.50
7384;DHT22;3733;47.994;8.820;2023-07-28T15:42:58;21.60;91.20
7384;DHT22;3733;47.994;8.820;2023-07-28T15:45:23;21.60;91.20
7384;DHT22;3733;47.994;8.820;2023-07-28T15:47:49;21.50;92.80
7384;DHT22;3733;47.994;8.820;2023-07-28T15:50:14;21.40;93.30
7384;DHT22;3733;47.994;8.820;2023-07-28T15:52:40;21.30;93.40
7384;DHT22;3733;47.994;8.820;2023-07-28T15:55:06;21.30;94.60
7384;DHT22;3733;47.994;8.820;2023-07-28T15:57:32;21.30;96.30
7384;DHT22;3733;47.994;8.820;2023-07-28T15:59:57;21.30;98.70
7384;DHT22;3733;47.994;8.820;2023-07-28T16:02:23;21.30;99.90
7384;DHT22;3733;47.994;8.820;2023-07-28T16:04:49;21.20;99.90
7384;DHT22;3733;47.994;8.820;2023-07-28T16:07:15;21.20;99.90
7384;DHT22;3733;47.994;8.820;2023-07-28T16:09:41;21.20;99.90
7384;DHT22;3733;47.994;8.820;2023-07-28T16:12:09;21.10;99.90